Westover, Maryland
Current Conditions -  °F | °C
As of 3:54 AM on Thursday 27 Nov 2014 (Local Time) from KSBY Reporting Station
Clear Clear  
Wind Chill: 36°   Ceiling: Unl
Heat Index: 39°   Visibility: 10mi
Dew Point: 33°   Wind: 5mph
Humidity: 79%   Direction: 270°W
Pressure: 30"   Gusts: NA
Location:  38.12°N, 75.71°W
Report Text: KSBY 270854Z AUTO 27004KT 10SM CLR 04/01 A3000 RMK AO2 SLP162 T00390006 50012
Loading
Personal Weather Stations






























Interactive Weather Map New forecast layout! Learn more

10-Day Weather Forecast

Advertisements
Track Severe Weather on mobile